Time;durP1;ratioP1;P1;durP2;ratioP2;P2;SDS_P1;SDS_P2;PMS_P1;PMS_P2;Temp;Humidity;BMP_temperature;BMP_pressure;BME280_temperature;BME280_humidity;BME280_pressure;Samples;Min_cycle;Max_cycle;Signal;HPM_P1;HPM_P2
2023/04/01 00:01:51;;;;;;;7.18;6.88;;;;;;;;;;5055416;28;20041;-88
2023/04/01 00:04:17;;;;;;;8.30;7.88;;;;;;;;;;5055134;28;20460;-88
2023/04/01 00:06:44;;;;;;;6.45;6.07;;;;;;;;;;5054998;28;20045;-88
2023/04/01 00:09:10;;;;;;;9.80;9.40;;;;;;;;;;5055036;28;20389;-89
2023/04/01 00:11:37;;;;;;;7.22;6.93;;;;;;;;;;5054798;28;20045;-90
2023/04/01 00:14:04;;;;;;;7.38;6.97;;;;;;;;;;5054067;28;20102;-89
2023/04/01 00:16:30;;;;;;;7.38;6.22;;;;;;;;;;5054679;28;20045;-89
2023/04/01 00:18:58;;;;;;;7.32;7.03;;;;;;;;;;5054842;28;20048;-88
2023/04/01 00:21:25;;;;;;;5.45;5.18;;;;;;;;;;5054941;28;20102;-90
2023/04/01 00:23:52;;;;;;;8.30;7.90;;;;;;;;;;5055284;28;20749;-90
2023/04/01 00:26:20;;;;;;;7.90;7.50;;;;;;;;;;5055489;28;20049;-91
2023/04/01 00:28:46;;;;;;;8.68;8.18;;;;;;;;;;5055293;28;20148;-90
2023/04/01 00:31:13;;;;;;;6.57;6.25;;;;;;;;;;5054984;28;20049;-90
2023/04/01 00:33:40;;;;;;;6.45;6.15;;;;;;;;;;5054887;28;20045;-90
2023/04/01 00:36:10;;;;;;;6.45;6.20;;;;;;;;;;5054935;28;20136;-91
2023/04/01 00:38:37;;;;;;;16.00;15.40;;;;;;;;;;5055028;28;20060;-90
2023/04/01 00:41:04;;;;;;;8.50;8.10;;;;;;;;;;5055097;28;20178;-90
2023/04/01 00:43:31;;;;;;;6.20;5.65;;;;;;;;;;5054592;28;20088;-89
2023/04/01 00:45:57;;;;;;;5.03;4.78;;;;;;;;;;5054716;28;20102;-89
2023/04/01 00:48:26;;;;;;;5.07;4.88;;;;;;;;;;5054378;28;20044;-89
2023/04/01 00:50:54;;;;;;;7.13;6.75;;;;;;;;;;5054597;28;20087;-89
2023/04/01 00:53:22;;;;;;;6.05;5.75;;;;;;;;;;5054181;28;20049;-89
2023/04/01 00:55:51;;;;;;;6.78;6.13;;;;;;;;;;5054361;28;20049;-89
2023/04/01 00:58:18;;;;;;;5.68;5.47;;;;;;;;;;5054199;28;20053;-89
2023/04/01 01:00:46;;;;;;;4.43;4.22;;;;;;;;;;5051115;28;20492;-89
2023/04/01 01:03:12;;;;;;;8.25;7.93;;;;;;;;;;5054406;28;20463;-88
2023/04/01 01:05:47;;;;;;;5.53;5.13;;;;;;;;;;5054166;28;20088;-88
2023/04/01 01:08:16;;;;;;;5.35;5.15;;;;;;;;;;5053693;28;20103;-88
2023/04/01 01:10:49;;;;;;;6.72;6.43;;;;;;;;;;5054163;28;20459;-88
2023/04/01 01:13:18;;;;;;;5.40;5.20;;;;;;;;;;5053507;28;20060;-88
2023/04/01 01:15:47;;;;;;;6.88;6.57;;;;;;;;;;5053585;28;20496;-88
2023/04/01 01:18:18;;;;;;;7.18;6.88;;;;;;;;;;5053565;28;20049;-88
2023/04/01 01:20:58;;;;;;;7.88;7.47;;;;;;;;;;5053738;28;20134;-88
2023/04/01 01:23:41;;;;;;;6.72;6.43;;;;;;;;;;5053541;28;20057;-88
2023/04/01 01:26:30;;;;;;;6.28;5.88;;;;;;;;;;5053851;28;20049;-87
2023/04/01 01:29:02;;;;;;;6.07;5.78;;;;;;;;;;5053689;28;20526;-88
2023/04/01 01:31:34;;;;;;;5.28;5.07;;;;;;;;;;5053803;28;20057;-88
2023/04/01 01:34:07;;;;;;;5.95;5.70;;;;;;;;;;5054548;28;20049;-88
2023/04/01 01:36:35;;;;;;;6.20;5.90;;;;;;;;;;5053367;28;20559;-88
2023/04/01 01:39:02;;;;;;;8.70;8.30;;;;;;;;;;5070817;28;20049;-88
2023/04/01 01:41:29;;;;;;;5.70;5.45;;;;;;;;;;5064979;28;20053;-89
2023/04/01 01:43:57;;;;;;;5.93;5.63;;;;;;;;;;5053372;28;20099;-88
2023/04/01 01:46:25;;;;;;;5.32;5.13;;;;;;;;;;5053738;28;20049;-88
2023/04/01 01:48:52;;;;;;;5.53;5.30;;;;;;;;;;5053778;28;20102;-88
2023/04/01 01:51:19;;;;;;;5.47;5.18;;;;;;;;;;5053530;28;20045;-88
2023/04/01 01:53:47;;;;;;;7.32;7.03;;;;;;;;;;5053110;28;20048;-90
2023/04/01 01:56:15;;;;;;;6.03;5.57;;;;;;;;;;5073636;28;20048;-89
2023/04/01 01:58:44;;;;;;;7.05;6.75;;;;;;;;;;5073469;28;20052;-89
2023/04/01 02:01:12;;;;;;;6.78;6.47;;;;;;;;;;5073569;28;20488;-89
2023/04/01 02:03:40;;;;;;;7.25;6.95;;;;;;;;;;5073522;28;20053;-89
2023/04/01 02:06:08;;;;;;;7.63;7.32;;;;;;;;;;5073400;28;20052;-89
2023/04/01 02:08:36;;;;;;;8.80;8.40;;;;;;;;;;5073469;28;20554;-89
2023/04/01 02:11:06;;;;;;;7.32;7.03;;;;;;;;;;5072700;28;20564;-89
2023/04/01 02:13:35;;;;;;;8.27;7.75;;;;;;;;;;5053342;28;20128;-88
2023/04/01 02:16:12;;;;;;;10.85;10.18;;;;;;;;;;5053999;28;20440;-89
2023/04/01 02:18:40;;;;;;;6.38;6.03;;;;;;;;;;5053561;28;20076;-89
2023/04/01 02:21:07;;;;;;;11.00;10.50;;;;;;;;;;5053349;28;20053;-89
2023/04/01 02:23:34;;;;;;;7.15;6.85;;;;;;;;;;5053373;28;20114;-89
2023/04/01 02:26:01;;;;;;;5.40;5.10;;;;;;;;;;5052983;28;20550;-89
2023/04/01 02:28:30;;;;;;;6.32;6.03;;;;;;;;;;5053061;28;20538;-90
2023/04/01 02:30:58;;;;;;;6.18;5.78;;;;;;;;;;5051908;28;20079;-90
2023/04/01 02:33:25;;;;;;;7.90;7.60;;;;;;;;;;5053497;28;20462;-90
2023/04/01 02:35:51;;;;;;;6.22;5.82;;;;;;;;;;5053783;28;20060;-90
2023/04/01 02:38:18;;;;;;;5.15;4.95;;;;;;;;;;5055354;28;20048;-90
2023/04/01 02:40:45;;;;;;;6.43;6.07;;;;;;;;;;5057200;28;20056;-89
2023/04/01 02:43:12;;;;;;;6.75;6.45;;;;;;;;;;5056712;28;20049;-89
2023/04/01 02:45:40;;;;;;;6.70;6.38;;;;;;;;;;5055883;28;20096;-89
2023/04/01 02:48:06;;;;;;;4.45;4.25;;;;;;;;;;5056040;28;20057;-89
2023/04/01 02:50:33;;;;;;;6.18;5.95;;;;;;;;;;5056931;28;20045;-89
2023/04/01 02:52:59;;;;;;;5.47;5.00;;;;;;;;;;5056684;28;20102;-89
2023/04/01 02:55:26;;;;;;;4.97;4.60;;;;;;;;;;5056614;28;20053;-89
2023/04/01 02:57:52;;;;;;;4.88;4.65;;;;;;;;;;5056734;28;20562;-88
2023/04/01 03:00:19;;;;;;;5.78;5.32;;;;;;;;;;5057035;28;20048;-88
2023/04/01 03:02:47;;;;;;;6.80;6.30;;;;;;;;;;5056535;28;20044;-89
2023/04/01 03:05:14;;;;;;;6.10;5.90;;;;;;;;;;5056597;28;20099;-89
2023/04/01 03:07:40;;;;;;;4.82;4.28;;;;;;;;;;5056034;28;20053;-88
2023/04/01 03:10:08;;;;;;;5.25;5.00;;;;;;;;;;5056113;28;20459;-88
2023/04/01 03:12:34;;;;;;;6.78;6.47;;;;;;;;;;5056113;28;20048;-88
2023/04/01 03:15:01;;;;;;;9.07;8.70;;;;;;;;;;5056517;28;20056;-90
2023/04/01 03:17:27;;;;;;;6.18;5.88;;;;;;;;;;5056126;28;20485;-89
2023/04/01 03:19:55;;;;;;;7.65;7.25;;;;;;;;;;5055230;28;20098;-89
2023/04/01 03:22:22;;;;;;;7.65;7.32;;;;;;;;;;5059205;28;20130;-90
2023/04/01 03:24:48;;;;;;;8.95;8.55;;;;;;;;;;5056768;28;20099;-90
2023/04/01 03:27:15;;;;;;;7.93;7.53;;;;;;;;;;5056307;28;20045;-89
2023/04/01 03:29:41;;;;;;;4.53;4.32;;;;;;;;;;5055817;28;20094;-89
2023/04/01 03:32:08;;;;;;;7.82;7.53;;;;;;;;;;5056001;28;20049;-89
2023/04/01 03:34:35;;;;;;;7.50;7.20;;;;;;;;;;5056041;28;20052;-90
2023/04/01 03:37:02;;;;;;;7.40;7.10;;;;;;;;;;5055439;28;20511;-89
2023/04/01 03:39:29;;;;;;;8.70;8.20;;;;;;;;;;5056295;28;20056;-91
2023/04/01 03:41:55;;;;;;;6.72;6.45;;;;;;;;;;5056208;28;20049;-90
2023/04/01 03:44:22;;;;;;;7.35;6.95;;;;;;;;;;5056415;28;20045;-90
2023/04/01 03:46:48;;;;;;;7.85;7.45;;;;;;;;;;5055630;28;20527;-90
2023/04/01 03:49:15;;;;;;;7.93;7.63;;;;;;;;;;5055762;28;20049;-89
2023/04/01 03:51:42;;;;;;;7.00;6.60;;;;;;;;;;5057054;28;20119;-90
2023/04/01 03:54:10;;;;;;;5.90;5.60;;;;;;;;;;5054789;28;20102;-89
2023/04/01 03:56:38;;;;;;;7.35;6.90;;;;;;;;;;5055677;28;20060;-89
2023/04/01 03:59:05;;;;;;;10.63;10.18;;;;;;;;;;5055491;28;20481;-89
2023/04/01 04:01:31;;;;;;;9.65;9.25;;;;;;;;;;5055458;28;20447;-90
2023/04/01 04:03:59;;;;;;;7.72;7.43;;;;;;;;;;5055854;28;20128;-89
2023/04/01 04:06:26;;;;;;;8.30;7.90;;;;;;;;;;5056395;28;20052;-90
2023/04/01 04:08:52;;;;;;;6.63;6.32;;;;;;;;;;5055412;28;20075;-90
2023/04/01 04:11:20;;;;;;;5.05;4.85;;;;;;;;;;5055061;28;20488;-90
2023/04/01 04:13:48;;;;;;;6.88;5.90;;;;;;;;;;5055665;28;20055;-89
2023/04/01 04:16:15;;;;;;;8.77;8.38;;;;;;;;;;5057369;28;20087;-90
2023/04/01 04:18:42;;;;;;;7.93;7.63;;;;;;;;;;5057209;28;20102;-91
2023/04/01 04:21:12;;;;;;;8.10;7.80;;;;;;;;;;5055482;28;20061;-90
2023/04/01 04:23:38;;;;;;;9.95;9.45;;;;;;;;;;5055255;28;20450;-90
2023/04/01 04:26:06;;;;;;;8.45;8.05;;;;;;;;;;5055328;28;20061;-90
2023/04/01 04:28:34;;;;;;;7.75;7.35;;;;;;;;;;5054608;28;20103;-90
2023/04/01 04:31:00;;;;;;;9.55;9.15;;;;;;;;;;5054586;28;20049;-91
2023/04/01 04:33:27;;;;;;;7.72;7.43;;;;;;;;;;5054787;28;20053;-90
2023/04/01 04:35:56;;;;;;;7.32;6.93;;;;;;;;;;5054654;28;20049;-90
2023/04/01 04:38:22;;;;;;;7.05;6.65;;;;;;;;;;5054715;28;20099;-91
2023/04/01 04:40:49;;;;;;;6.03;5.75;;;;;;;;;;5054965;28;20049;-92
2023/04/01 04:43:17;;;;;;;7.22;6.93;;;;;;;;;;5055295;28;20049;-93
2023/04/01 04:45:45;;;;;;;5.93;5.70;;;;;;;;;;5054498;28;20045;-93
2023/04/01 04:48:16;;;;;;;16.58;15.98;;;;;;;;;;5054795;28;20057;-91
2023/04/01 04:50:42;;;;;;;6.40;6.10;;;;;;;;;;5054901;28;20056;-93
2023/04/01 04:53:10;;;;;;;6.35;6.13;;;;;;;;;;5055094;28;20045;-93
2023/04/01 04:55:36;;;;;;;6.32;5.95;;;;;;;;;;5052885;28;20115;-93
2023/04/01 04:58:03;;;;;;;5.30;5.03;;;;;;;;;;5054398;28;20053;-93
2023/04/01 05:00:29;;;;;;;5.80;5.60;;;;;;;;;;5052606;28;20053;-93
2023/04/01 05:02:57;;;;;;;8.73;8.40;;;;;;;;;;5053847;28;20044;-93
2023/04/01 05:05:24;;;;;;;6.13;5.82;;;;;;;;;;5054503;28;20049;-93
2023/04/01 05:07:50;;;;;;;7.53;7.22;;;;;;;;;;5054383;28;20099;-93
2023/04/01 05:10:17;;;;;;;13.02;12.10;;;;;;;;;;5054414;28;20106;-92
2023/04/01 05:12:43;;;;;;;16.15;11.38;;;;;;;;;;5054259;28;20122;-91
2023/04/01 05:15:10;;;;;;;9.93;9.18;;;;;;;;;;5053825;28;20045;-91
2023/04/01 05:17:36;;;;;;;8.68;8.25;;;;;;;;;;5053737;28;20501;-91
2023/04/01 05:20:05;;;;;;;7.35;6.82;;;;;;;;;;5053136;28;20052;-92
2023/04/01 05:22:31;;;;;;;7.70;7.28;;;;;;;;;;5054423;28;20107;-91
2023/04/01 05:24:58;;;;;;;8.52;8.13;;;;;;;;;;5054304;28;20053;-92
2023/04/01 05:27:24;;;;;;;8.18;7.78;;;;;;;;;;5054473;28;20045;-92
2023/04/01 05:29:51;;;;;;;10.43;9.77;;;;;;;;;;5054197;28;20130;-92
2023/04/01 05:32:17;;;;;;;8.20;7.60;;;;;;;;;;5054600;28;20123;-92
2023/04/01 05:34:44;;;;;;;8.13;7.72;;;;;;;;;;5051032;28;20467;-91
2023/04/01 05:37:12;;;;;;;7.57;7.03;;;;;;;;;;5052775;28;20049;-91
2023/04/01 05:39:38;;;;;;;21.73;20.83;;;;;;;;;;5054563;28;20056;-93
2023/04/01 05:42:06;;;;;;;20.10;19.30;;;;;;;;;;5056274;28;20052;-91
2023/04/01 05:44:33;;;;;;;6.88;6.57;;;;;;;;;;5054508;28;20053;-91
2023/04/01 05:46:59;;;;;;;8.93;8.43;;;;;;;;;;5054441;28;20051;-91
2023/04/01 05:49:26;;;;;;;8.00;7.43;;;;;;;;;;5054147;28;20103;-92
2023/04/01 05:51:52;;;;;;;12.65;12.15;;;;;;;;;;5055247;28;20463;-92
2023/04/01 05:54:20;;;;;;;9.40;9.00;;;;;;;;;;5055639;28;20063;-92
2023/04/01 05:56:47;;;;;;;10.40;9.90;;;;;;;;;;5057103;28;20098;-95
2023/04/01 05:59:14;;;;;;;9.82;9.40;;;;;;;;;;5060411;28;20056;-95
2023/04/01 06:01:41;;;;;;;12.27;11.77;;;;;;;;;;5058749;28;20052;-94
2023/04/01 06:04:07;;;;;;;22.30;21.40;;;;;;;;;;5056713;28;20106;-94
2023/04/01 06:06:35;;;;;;;18.70;17.95;;;;;;;;;;5056207;28;20048;-93
2023/04/01 06:09:08;;;;;;;28.02;26.90;;;;;;;;;;5047182;28;20045;-93
2023/04/01 06:11:38;;;;;;;21.77;20.92;;;;;;;;;;5055765;28;20053;-93
2023/04/01 06:14:14;;;;;;;7.85;7.43;;;;;;;;;;5040163;28;20059;-93
2023/04/01 06:16:45;;;;;;;14.32;13.73;;;;;;;;;;5040362;28;20124;-92
2023/04/01 06:19:22;;;;;;;27.92;26.80;;;;;;;;;;5044353;28;20041;-93
2023/04/01 06:21:56;;;;;;;11.48;10.98;;;;;;;;;;5042447;28;20049;-93
2023/04/01 06:24:29;;;;;;;23.75;22.85;;;;;;;;;;5041461;28;20041;-94
2023/04/01 06:27:03;;;;;;;27.85;26.83;;;;;;;;;;5057447;28;20052;-93
2023/04/01 06:29:45;;;;;;;11.15;10.65;;;;;;;;;;5061981;28;20122;-93
2023/04/01 06:32:24;;;;;;;23.35;22.38;;;;;;;;;;5060090;28;20103;-93
2023/04/01 06:34:59;;;;;;;20.17;19.35;;;;;;;;;;5059559;28;20056;-93
2023/04/01 06:37:36;;;;;;;23.40;22.52;;;;;;;;;;5062214;28;20053;-94
2023/04/01 06:40:21;;;;;;;13.38;12.88;;;;;;;;;;5064346;28;20055;-93
2023/04/01 06:43:06;;;;;;;11.27;10.77;;;;;;;;;;5061939;28;20045;-93
2023/04/01 06:45:36;;;;;;;28.05;26.95;;;;;;;;;;5063995;28;20045;-93
2023/04/01 06:48:12;;;;;;;23.63;22.75;;;;;;;;;;5062071;28;20053;-93
2023/04/01 06:50:42;;;;;;;17.88;17.17;;;;;;;;;;5063513;28;20470;-92
2023/04/01 06:53:12;;;;;;;14.43;13.93;;;;;;;;;;5057960;28;20148;-93
2023/04/01 06:55:40;;;;;;;;;;;;;;;;;;5059109;28;20056;-92
2023/04/01 06:58:12;;;;;;;24.13;23.13;;;;;;;;;;5062069;28;19967;-92
2023/04/01 07:00:40;;;;;;;13.63;12.65;;;;;;;;;;5062194;28;20041;-93
2023/04/01 07:03:12;;;;;;;11.30;10.80;;;;;;;;;;5060776;28;20563;-92
2023/04/01 07:05:40;;;;;;;24.90;24.00;;;;;;;;;;5067318;28;20106;-93
2023/04/01 07:08:09;;;;;;;12.85;12.35;;;;;;;;;;5066020;28;20075;-92
2023/04/01 07:10:38;;;;;;;24.77;23.58;;;;;;;;;;5061889;28;20171;-93
2023/04/01 07:13:09;;;;;;;24.67;23.73;;;;;;;;;;5051333;28;20080;-92
2023/04/01 07:15:39;;;;;;;26.15;25.10;;;;;;;;;;5057001;28;20117;-92
2023/04/01 07:18:08;;;;;;;27.52;26.48;;;;;;;;;;5056602;28;20099;-93
2023/04/01 07:20:36;;;;;;;32.28;31.13;;;;;;;;;;5050763;28;20037;-93
2023/04/01 07:23:04;;;;;;;25.95;24.92;;;;;;;;;;5056909;28;20045;-92
2023/04/01 07:25:32;;;;;;;28.10;27.00;;;;;;;;;;5057755;28;20058;-93
2023/04/01 07:28:01;;;;;;;23.15;22.25;;;;;;;;;;5057579;28;20053;-92
2023/04/01 07:30:29;;;;;;;29.75;28.65;;;;;;;;;;5064068;28;20060;-93
2023/04/01 07:33:01;;;;;;;9.27;8.82;;;;;;;;;;5064696;28;20083;-92
2023/04/01 07:35:31;;;;;;;21.77;20.98;;;;;;;;;;5059982;28;20045;-92
2023/04/01 07:38:08;;;;;;;12.23;11.73;;;;;;;;;;5055805;28;20049;-93
2023/04/01 07:40:40;;;;;;;21.27;20.45;;;;;;;;;;5055670;28;20087;-93
2023/04/01 07:43:12;;;;;;;27.77;26.67;;;;;;;;;;5058340;28;20049;-93
2023/04/01 07:45:42;;;;;;;24.02;22.98;;;;;;;;;;5057916;28;20497;-92
2023/04/01 07:48:15;;;;;;;26.30;25.33;;;;;;;;;;5057108;28;20137;-93
2023/04/01 07:50:46;;;;;;;29.27;28.15;;;;;;;;;;5060809;28;20547;-93
2023/04/01 07:53:16;;;;;;;28.05;26.90;;;;;;;;;;5062211;28;20131;-93
2023/04/01 07:55:45;;;;;;;22.38;21.48;;;;;;;;;;5045469;28;20057;-92
2023/04/01 07:58:15;;;;;;;28.88;27.63;;;;;;;;;;5042046;28;20068;-93
2023/04/01 08:00:46;;;;;;;15.38;14.70;;;;;;;;;;5058657;28;20448;-92
2023/04/01 08:03:20;;;;;;;25.70;24.55;;;;;;;;;;5056593;28;20056;-93
2023/04/01 08:05:50;;;;;;;27.38;26.38;;;;;;;;;;5056226;28;20048;-93
2023/04/01 08:08:19;;;;;;;25.10;24.13;;;;;;;;;;5055385;28;20067;-92
2023/04/01 08:10:48;;;;;;;30.30;29.23;;;;;;;;;;5055468;28;20049;-91
2023/04/01 08:13:18;;;;;;;26.60;25.63;;;;;;;;;;5055873;28;20135;-93
2023/04/01 08:15:45;;;;;;;;;;;;;;;;;;5053756;28;20045;-92
2023/04/01 08:18:17;;;;;;;22.13;21.25;;;;;;;;;;5057184;28;19920;-93
2023/04/01 08:20:48;;;;;;;10.68;10.27;;;;;;;;;;5060305;28;20486;-93
2023/04/01 08:23:17;;;;;;;23.52;22.70;;;;;;;;;;5057261;28;20053;-93
2023/04/01 08:25:48;;;;;;;13.68;13.10;;;;;;;;;;5075319;28;20032;-92
2023/04/01 08:28:18;;;;;;;27.58;26.52;;;;;;;;;;5075412;28;20080;-93
2023/04/01 08:30:46;;;;;;;12.73;12.23;;;;;;;;;;5055843;28;20493;-92
2023/04/01 08:33:16;;;;;;;21.95;21.15;;;;;;;;;;5054022;28;20044;-93
2023/04/01 08:35:47;;;;;;;29.00;27.90;;;;;;;;;;5054733;28;20111;-94
2023/04/01 08:38:18;;;;;;;26.27;25.30;;;;;;;;;;5055557;28;20048;-94
2023/04/01 08:40:56;;;;;;;24.67;23.67;;;;;;;;;;5055169;28;20049;-93
2023/04/01 08:43:28;;;;;;;15.40;14.75;;;;;;;;;;5049562;28;20472;-93
2023/04/01 08:46:00;;;;;;;24.60;23.70;;;;;;;;;;5034920;28;20528;-94
2023/04/01 08:48:49;;;;;;;12.70;12.20;;;;;;;;;;5036711;28;20413;-92
2023/04/01 08:51:28;;;;;;;23.35;22.45;;;;;;;;;;5054602;28;20060;-92
2023/04/01 08:54:07;;;;;;;11.07;10.32;;;;;;;;;;5054981;28;20045;-93
2023/04/01 08:56:36;;;;;;;12.52;11.98;;;;;;;;;;5055466;28;20523;-93
2023/04/01 08:59:14;;;;;;;22.17;21.33;;;;;;;;;;5055109;28;20053;-92
2023/04/01 09:01:58;;;;;;;21.33;20.52;;;;;;;;;;5055101;28;20057;-92
2023/04/01 09:04:36;;;;;;;27.80;26.73;;;;;;;;;;5066536;28;20053;-94
2023/04/01 09:07:12;;;;;;;22.30;21.45;;;;;;;;;;5054645;28;20053;-93
2023/04/01 09:09:49;;;;;;;23.83;22.52;;;;;;;;;;5055746;28;20056;-92
2023/04/01 09:12:28;;;;;;;25.83;24.70;;;;;;;;;;5055277;28;20045;-94
2023/04/01 09:15:02;;;;;;;27.55;26.52;;;;;;;;;;5054931;28;20049;-93
2023/04/01 09:17:51;;;;;;;28.38;27.30;;;;;;;;;;5054690;28;20045;-94
2023/04/01 09:20:29;;;;;;;32.72;31.35;;;;;;;;;;5054973;28;20056;-93
2023/04/01 09:23:03;;;;;;;29.35;28.25;;;;;;;;;;5052550;28;20049;-93
2023/04/01 09:25:48;;;;;;;30.90;29.70;;;;;;;;;;5055014;28;20102;-93
2023/04/01 09:28:19;;;;;;;28.75;27.75;;;;;;;;;;5054731;28;20048;-94
2023/04/01 09:31:00;;;;;;;18.58;17.85;;;;;;;;;;5055143;28;20413;-94
2023/04/01 09:33:53;;;;;;;34.47;33.22;;;;;;;;;;5046860;28;20552;-94
2023/04/01 09:36:31;;;;;;;31.65;30.52;;;;;;;;;;5055914;28;20489;-94
2023/04/01 09:38:58;;;;;;;36.60;34.95;;;;;;;;;;5052111;28;20052;-92
2023/04/01 09:41:29;;;;;;;46.22;44.53;;;;;;;;;;5053480;28;20053;-93
2023/04/01 09:44:04;;;;;;;45.20;43.40;;;;;;;;;;5054817;28;20094;-95
2023/04/01 09:46:49;;;;;;;44.70;43.10;;;;;;;;;;5054556;28;20049;-95
2023/04/01 09:49:23;;;;;;;44.47;42.88;;;;;;;;;;5058487;28;20072;-95
2023/04/01 09:51:56;;;;;;;38.63;37.03;;;;;;;;;;5058799;28;20567;-95
2023/04/01 09:54:31;;;;;;;43.08;41.30;;;;;;;;;;5058586;28;20102;-95
2023/04/01 09:57:10;;;;;;;42.35;40.83;;;;;;;;;;5058057;28;20044;-95
2023/04/01 09:59:59;;;;;;;44.75;42.88;;;;;;;;;;5056000;28;20051;-95
2023/04/01 10:02:42;;;;;;;42.28;40.70;;;;;;;;;;5059981;28;20044;-96
2023/04/01 10:05:23;;;;;;;43.97;42.40;;;;;;;;;;5066981;28;20048;-95
2023/04/01 10:08:11;;;;;;;37.42;36.10;;;;;;;;;;5063483;28;20056;-96
2023/04/01 10:10:48;;;;;;;40.60;39.17;;;;;;;;;;5040074;28;20053;-95
2023/04/01 10:13:33;;;;;;;37.70;35.92;;;;;;;;;;5066720;28;20141;-96
2023/04/01 10:16:18;;;;;;;43.00;41.40;;;;;;;;;;5059888;28;20049;-96
2023/04/01 10:18:59;;;;;;;39.10;37.70;;;;;;;;;;5060181;28;20040;-96
2023/04/01 10:21:44;;;;;;;17.17;16.27;;;;;;;;;;5055929;28;20451;-95
2023/04/01 10:24:34;;;;;;;32.22;30.95;;;;;;;;;;5060487;28;20048;-94
2023/04/01 10:27:15;;;;;;;31.55;30.38;;;;;;;;;;5039215;28;20107;-95
2023/04/01 10:29:59;;;;;;;36.22;34.78;;;;;;;;;;5056253;28;20036;-96
2023/04/01 10:32:44;;;;;;;34.45;33.00;;;;;;;;;;5062476;28;20076;-95
2023/04/01 10:35:30;;;;;;;40.35;38.75;;;;;;;;;;5061864;28;20566;-96
2023/04/01 10:38:18;;;;;;;38.40;37.00;;;;;;;;;;5063499;28;20052;-95
2023/04/01 10:41:09;;;;;;;38.50;37.03;;;;;;;;;;5062738;28;20122;-95
2023/04/01 10:43:47;;;;;;;36.28;34.83;;;;;;;;;;5048613;28;20056;-95
2023/04/01 10:46:29;;;;;;;32.90;31.67;;;;;;;;;;5061307;28;20574;-95
2023/04/01 10:49:14;;;;;;;38.00;36.38;;;;;;;;;;5057617;28;20049;-95
2023/04/01 10:51:56;;;;;;;29.30;28.20;;;;;;;;;;5053977;28;20053;-96
2023/04/01 10:54:37;;;;;;;31.13;29.90;;;;;;;;;;5057781;28;20045;-94
2023/04/01 10:57:11;;;;;;;18.10;16.48;;;;;;;;;;5044676;28;20046;-96
2023/04/01 10:59:59;;;;;;;25.90;24.90;;;;;;;;;;5052885;28;20110;-95
2023/04/01 11:02:44;;;;;;;13.90;13.20;;;;;;;;;;5055094;28;20099;-95
2023/04/01 11:05:37;;;;;;;14.75;14.18;;;;;;;;;;5062187;28;20086;-95
2023/04/01 11:08:15;;;;;;;15.50;14.43;;;;;;;;;;5058129;28;20095;-94
2023/04/01 11:10:56;;;;;;;24.08;23.17;;;;;;;;;;5061869;28;20072;-94
2023/04/01 11:13:53;;;;;;;14.70;14.10;;;;;;;;;;5062102;28;20374;-94
2023/04/01 11:16:46;;;;;;;22.73;21.88;;;;;;;;;;4999384;28;20573;-95
2023/04/01 11:19:40;;;;;;;33.67;32.38;;;;;;;;;;4940274;29;20052;-94
2023/04/01 11:22:31;;;;;;;27.40;26.33;;;;;;;;;;4926547;29;20056;-95
2023/04/01 11:25:15;;;;;;;20.58;19.77;;;;;;;;;;4919162;29;20048;-96
2023/04/01 11:27:56;;;;;;;26.13;25.13;;;;;;;;;;4932290;29;20056;-95
2023/04/01 11:30:39;;;;;;;27.70;26.63;;;;;;;;;;4927326;29;20111;-94
2023/04/01 11:33:08;;;;;;;10.07;9.57;;;;;;;;;;4923299;29;20155;-94
2023/04/01 11:35:52;;;;;;;10.85;10.40;;;;;;;;;;4925016;29;20052;-93
2023/04/01 11:38:35;;;;;;;29.95;28.85;;;;;;;;;;4923820;29;20047;-94
2023/04/01 11:41:01;;;;;;;;;;;;;;;;;;4912586;29;20067;-94
2023/04/01 11:43:30;;;;;;;16.88;16.08;;;;;;;;;;4905958;29;19939;-93
2023/04/01 11:46:00;;;;;;;20.30;19.55;;;;;;;;;;4919289;29;20393;-94
2023/04/01 11:48:35;;;;;;;29.02;27.92;;;;;;;;;;4922695;29;20138;-95
2023/04/01 11:51:10;;;;;;;31.02;29.88;;;;;;;;;;4966892;28;20061;-95
2023/04/01 11:53:45;;;;;;;27.35;26.35;;;;;;;;;;4978605;28;20059;-95
2023/04/01 11:56:21;;;;;;;13.20;12.55;;;;;;;;;;5039346;28;20068;-94
2023/04/01 11:59:03;;;;;;;12.88;12.38;;;;;;;;;;5040551;28;20056;-95
2023/04/01 12:01:35;;;;;;;33.72;32.47;;;;;;;;;;5058098;28;20546;-96
2023/04/01 12:04:17;;;;;;;14.35;13.80;;;;;;;;;;5062801;28;20221;-94
2023/04/01 12:06:49;;;;;;;28.23;27.10;;;;;;;;;;5060030;28;20053;-94
2023/04/01 12:09:20;;;;;;;29.58;28.38;;;;;;;;;;5060887;28;20109;-95
2023/04/01 12:11:52;;;;;;;12.20;11.70;;;;;;;;;;5060016;28;20041;-95
2023/04/01 12:14:21;;;;;;;15.90;15.30;;;;;;;;;;5063533;28;20041;-94
2023/04/01 12:16:55;;;;;;;21.00;20.05;;;;;;;;;;5061084;28;20508;-95
2023/04/01 12:19:28;;;;;;;12.68;11.90;;;;;;;;;;5061244;28;20041;-95
2023/04/01 12:22:05;;;;;;;14.32;13.63;;;;;;;;;;5058098;28;20463;-92
2023/04/01 12:24:52;;;;;;;12.35;11.85;;;;;;;;;;5055919;28;20056;-91
2023/04/01 12:27:33;;;;;;;9.45;9.05;;;;;;;;;;5050532;28;20055;-93
2023/04/01 12:30:22;;;;;;;9.65;9.25;;;;;;;;;;5055077;28;20065;-93
2023/04/01 12:32:49;;;;;;;;;;;;;;;;;;5055787;28;20048;-94
2023/04/01 12:35:21;;;;;;;10.02;9.63;;;;;;;;;;5053627;28;19920;-95
2023/04/01 12:37:51;;;;;;;11.02;10.43;;;;;;;;;;5055182;28;20170;-94
2023/04/01 12:40:32;;;;;;;11.60;11.07;;;;;;;;;;5056568;28;20045;-95
2023/04/01 12:43:26;;;;;;;8.57;8.27;;;;;;;;;;5058927;28;20142;-96
2023/04/01 12:46:00;;;;;;;9.35;8.85;;;;;;;;;;5015698;28;20049;-96
2023/04/01 12:48:34;;;;;;;9.95;9.55;;;;;;;;;;5015836;28;20454;-96
2023/04/01 12:51:20;;;;;;;10.70;10.27;;;;;;;;;;5016911;28;20469;-96
2023/04/01 12:53:58;;;;;;;10.32;9.88;;;;;;;;;;5016863;28;20046;-96
2023/04/01 12:56:32;;;;;;;7.00;6.68;;;;;;;;;;5018045;28;20081;-96
2023/04/01 12:59:17;;;;;;;18.25;17.55;;;;;;;;;;5014841;28;20045;-94
2023/04/01 13:02:08;;;;;;;7.28;6.88;;;;;;;;;;4995113;28;20058;-96
2023/04/01 13:04:53;;;;;;;5.80;5.57;;;;;;;;;;4985895;28;20425;-95
2023/04/01 13:07:34;;;;;;;6.90;6.60;;;;;;;;;;4995304;28;20051;-96
2023/04/01 13:10:10;;;;;;;6.75;6.45;;;;;;;;;;5015436;28;20058;-96
2023/04/01 13:12:52;;;;;;;6.80;6.40;;;;;;;;;;5019821;28;20053;-96
2023/04/01 13:15:26;;;;;;;9.73;9.23;;;;;;;;;;5016800;28;20058;-95
2023/04/01 13:17:54;;;;;;;8.02;7.72;;;;;;;;;;5014476;28;20104;-96
2023/04/01 13:20:25;;;;;;;8.27;7.88;;;;;;;;;;5014958;28;20052;-95
2023/04/01 13:22:57;;;;;;;14.25;13.73;;;;;;;;;;5054768;28;20350;-96
2023/04/01 13:25:28;;;;;;;9.63;9.23;;;;;;;;;;5057447;28;20072;-96
2023/04/01 13:27:57;;;;;;;9.13;8.75;;;;;;;;;;5052477;28;20501;-95
2023/04/01 13:30:27;;;;;;;7.72;7.32;;;;;;;;;;5079538;28;20106;-96
2023/04/01 13:32:59;;;;;;;8.10;7.70;;;;;;;;;;5085921;28;20109;-96
2023/04/01 13:35:33;;;;;;;9.60;9.20;;;;;;;;;;5096801;28;20048;-96
2023/04/01 13:38:09;;;;;;;12.07;11.65;;;;;;;;;;5104572;28;20548;-95
2023/04/01 13:40:41;;;;;;;9.80;9.40;;;;;;;;;;5099081;28;20050;-96
2023/04/01 13:43:12;;;;;;;8.93;8.52;;;;;;;;;;5099798;28;20090;-95
2023/04/01 13:45:43;;;;;;;8.73;8.23;;;;;;;;;;5107091;28;20137;-96
2023/04/01 13:48:21;;;;;;;10.60;10.05;;;;;;;;;;5102675;28;20059;-96
2023/04/01 13:50:57;;;;;;;20.77;19.98;;;;;;;;;;5101834;28;20074;-96
2023/04/01 13:53:31;;;;;;;9.05;8.68;;;;;;;;;;5104834;28;20074;-96
2023/04/01 13:56:08;;;;;;;8.32;8.00;;;;;;;;;;5108569;28;20102;-96
2023/04/01 13:58:55;;;;;;;12.63;12.02;;;;;;;;;;5114532;28;20097;-95
2023/04/01 14:01:26;;;;;;;11.73;11.13;;;;;;;;;;5093051;28;20052;-95
2023/04/01 14:04:12;;;;;;;10.73;10.30;;;;;;;;;;5100044;28;20074;-96
2023/04/01 14:06:45;;;;;;;13.25;12.65;;;;;;;;;;5109309;28;20112;-96
2023/04/01 14:09:16;;;;;;;10.80;10.38;;;;;;;;;;5112661;28;20056;-96
2023/04/01 14:11:48;;;;;;;12.32;11.63;;;;;;;;;;5114015;28;20091;-96
2023/04/01 14:14:19;;;;;;;11.55;11.10;;;;;;;;;;5112353;28;20040;-96
2023/04/01 14:16:58;;;;;;;10.55;10.05;;;;;;;;;;5109698;28;20052;-96
2023/04/01 14:19:32;;;;;;;9.48;8.98;;;;;;;;;;5102367;28;20074;-94
2023/04/01 14:22:04;;;;;;;10.38;9.88;;;;;;;;;;5093480;28;20561;-91
2023/04/01 14:24:45;;;;;;;9.60;9.15;;;;;;;;;;5093654;28;20048;-93
2023/04/01 14:27:24;;;;;;;12.93;11.93;;;;;;;;;;5093425;28;20133;-94
2023/04/01 14:29:59;;;;;;;11.35;10.73;;;;;;;;;;5093860;28;20048;-93
2023/04/01 14:32:30;;;;;;;9.00;8.40;;;;;;;;;;5077863;28;20044;-94
2023/04/01 14:35:03;;;;;;;19.95;19.17;;;;;;;;;;5100737;28;20533;-94
2023/04/01 14:37:59;;;;;;;10.98;10.30;;;;;;;;;;5100333;28;20051;-94
2023/04/01 14:40:35;;;;;;;11.80;11.20;;;;;;;;;;5099134;28;20398;-94
2023/04/01 14:43:25;;;;;;;8.80;8.38;;;;;;;;;;5101914;28;20040;-95
2023/04/01 14:46:01;;;;;;;23.42;22.42;;;;;;;;;;5086694;28;20483;-95
2023/04/01 14:48:31;;;;;;;11.43;10.82;;;;;;;;;;5112838;28;20052;-94
2023/04/01 14:51:03;;;;;;;10.05;9.63;;;;;;;;;;5108249;28;20048;-95
2023/04/01 14:53:33;;;;;;;15.70;15.02;;;;;;;;;;5107577;28;20501;-95
2023/04/01 14:56:00;;;;;;;9.35;8.93;;;;;;;;;;5104850;28;20120;-95
2023/04/01 14:58:32;;;;;;;11.30;10.80;;;;;;;;;;5103326;28;20149;-95
2023/04/01 15:01:14;;;;;;;11.15;10.65;;;;;;;;;;5107327;28;20052;-96
2023/04/01 15:03:47;;;;;;;21.27;20.45;;;;;;;;;;5105080;28;20048;-95